sensor_id;sensor_type;location;lat;lon;timestamp;P1;durP1;ratioP1;P2;durP2;ratioP2
70369;SDS011;57790;51.356;-2.906;2022-10-16T00:02:37;16.48;;;1.60;;
70369;SDS011;57790;51.356;-2.906;2022-10-16T00:05:41;11.40;;;1.67;;
70369;SDS011;57790;51.356;-2.906;2022-10-16T00:08:43;13.48;;;1.50;;
70369;SDS011;57790;51.356;-2.906;2022-10-16T00:11:44;13.23;;;1.47;;
70369;SDS011;57790;51.356;-2.906;2022-10-16T00:14:44;10.07;;;1.30;;
70369;SDS011;57790;51.356;-2.906;2022-10-16T00:17:44;14.95;;;1.88;;
70369;SDS011;57790;51.356;-2.906;2022-10-16T00:20:45;16.53;;;2.20;;
70369;SDS011;57790;51.356;-2.906;2022-10-16T00:23:45;11.30;;;1.07;;
70369;SDS011;57790;51.356;-2.906;2022-10-16T00:26:45;14.77;;;1.70;;
70369;SDS011;57790;51.356;-2.906;2022-10-16T00:29:50;13.10;;;1.25;;
70369;SDS011;57790;51.356;-2.906;2022-10-16T00:32:51;19.98;;;1.70;;
70369;SDS011;57790;51.356;-2.906;2022-10-16T00:35:51;14.00;;;1.87;;
70369;SDS011;57790;51.356;-2.906;2022-10-16T00:38:52;10.03;;;1.40;;
70369;SDS011;57790;51.356;-2.906;2022-10-16T00:41:54;12.38;;;1.35;;
70369;SDS011;57790;51.356;-2.906;2022-10-16T00:44:56;11.20;;;2.03;;
70369;SDS011;57790;51.356;-2.906;2022-10-16T00:47:57;10.88;;;1.10;;
70369;SDS011;57790;51.356;-2.906;2022-10-16T00:50:58;10.63;;;1.50;;
70369;SDS011;57790;51.356;-2.906;2022-10-16T00:53:59;11.05;;;1.27;;
70369;SDS011;57790;51.356;-2.906;2022-10-16T00:57:02;14.70;;;2.08;;
70369;SDS011;57790;51.356;-2.906;2022-10-16T01:00:06;11.90;;;1.40;;
70369;SDS011;57790;51.356;-2.906;2022-10-16T01:03:22;13.07;;;1.50;;
70369;SDS011;57790;51.356;-2.906;2022-10-16T01:06:31;11.35;;;1.33;;
70369;SDS011;57790;51.356;-2.906;2022-10-16T01:13:01;12.85;;;1.27;;
70369;SDS011;57790;51.356;-2.906;2022-10-16T01:16:07;11.73;;;1.10;;
70369;SDS011;57790;51.356;-2.906;2022-10-16T01:29:34;12.75;;;1.60;;
70369;SDS011;57790;51.356;-2.906;2022-10-16T01:32:50;11.27;;;1.10;;
70369;SDS011;57790;51.356;-2.906;2022-10-16T01:35:57;10.90;;;1.17;;
70369;SDS011;57790;51.356;-2.906;2022-10-16T01:39:02;9.27;;;1.30;;
70369;SDS011;57790;51.356;-2.906;2022-10-16T01:42:11;9.90;;;0.97;;
70369;SDS011;57790;51.356;-2.906;2022-10-16T01:45:16;12.30;;;1.13;;
70369;SDS011;57790;51.356;-2.906;2022-10-16T01:48:19;15.73;;;1.67;;
70369;SDS011;57790;51.356;-2.906;2022-10-16T01:51:23;11.68;;;1.45;;
70369;SDS011;57790;51.356;-2.906;2022-10-16T01:54:26;9.13;;;1.17;;
70369;SDS011;57790;51.356;-2.906;2022-10-16T01:57:29;11.80;;;1.00;;
70369;SDS011;57790;51.356;-2.906;2022-10-16T02:00:31;9.65;;;1.52;;
70369;SDS011;57790;51.356;-2.906;2022-10-16T02:03:31;9.10;;;1.63;;
70369;SDS011;57790;51.356;-2.906;2022-10-16T02:06:34;12.88;;;1.38;;
70369;SDS011;57790;51.356;-2.906;2022-10-16T02:09:35;10.27;;;0.98;;
70369;SDS011;57790;51.356;-2.906;2022-10-16T02:12:37;11.98;;;1.48;;
70369;SDS011;57790;51.356;-2.906;2022-10-16T02:15:42;11.75;;;1.25;;
70369;SDS011;57790;51.356;-2.906;2022-10-16T02:18:42;8.17;;;1.00;;
70369;SDS011;57790;51.356;-2.906;2022-10-16T02:21:44;10.35;;;1.30;;
70369;SDS011;57790;51.356;-2.906;2022-10-16T02:25:09;8.95;;;0.93;;
70369;SDS011;57790;51.356;-2.906;2022-10-16T02:28:27;12.77;;;1.30;;
70369;SDS011;57790;51.356;-2.906;2022-10-16T02:31:46;7.53;;;1.20;;
70369;SDS011;57790;51.356;-2.906;2022-10-16T02:34:50;8.93;;;0.98;;
70369;SDS011;57790;51.356;-2.906;2022-10-16T02:37:51;9.90;;;1.10;;
70369;SDS011;57790;51.356;-2.906;2022-10-16T02:40:54;10.40;;;1.53;;
70369;SDS011;57790;51.356;-2.906;2022-10-16T02:43:54;9.55;;;1.00;;
70369;SDS011;57790;51.356;-2.906;2022-10-16T02:46:55;11.30;;;1.20;;
70369;SDS011;57790;51.356;-2.906;2022-10-16T02:49:55;12.32;;;1.33;;
70369;SDS011;57790;51.356;-2.906;2022-10-16T02:52:56;11.70;;;1.00;;
70369;SDS011;57790;51.356;-2.906;2022-10-16T02:55:56;9.23;;;1.10;;
70369;SDS011;57790;51.356;-2.906;2022-10-16T02:58:56;14.20;;;1.20;;
70369;SDS011;57790;51.356;-2.906;2022-10-16T03:01:57;8.70;;;1.23;;
70369;SDS011;57790;51.356;-2.906;2022-10-16T03:04:57;11.65;;;1.50;;
70369;SDS011;57790;51.356;-2.906;2022-10-16T03:07:58;11.97;;;1.03;;
70369;SDS011;57790;51.356;-2.906;2022-10-16T03:11:00;12.63;;;1.53;;
70369;SDS011;57790;51.356;-2.906;2022-10-16T03:14:01;13.63;;;1.10;;
70369;SDS011;57790;51.356;-2.906;2022-10-16T03:17:01;9.60;;;1.00;;
70369;SDS011;57790;51.356;-2.906;2022-10-16T03:20:02;7.97;;;0.90;;
70369;SDS011;57790;51.356;-2.906;2022-10-16T03:23:03;11.60;;;0.85;;
70369;SDS011;57790;51.356;-2.906;2022-10-16T03:26:03;11.60;;;1.10;;
70369;SDS011;57790;51.356;-2.906;2022-10-16T03:29:04;12.87;;;1.57;;
70369;SDS011;57790;51.356;-2.906;2022-10-16T03:32:05;12.10;;;1.65;;
70369;SDS011;57790;51.356;-2.906;2022-10-16T03:35:05;10.30;;;1.00;;
70369;SDS011;57790;51.356;-2.906;2022-10-16T03:38:06;9.15;;;1.17;;
70369;SDS011;57790;51.356;-2.906;2022-10-16T03:41:06;11.17;;;1.07;;
70369;SDS011;57790;51.356;-2.906;2022-10-16T03:44:07;10.05;;;1.00;;
70369;SDS011;57790;51.356;-2.906;2022-10-16T03:47:08;10.70;;;1.20;;
70369;SDS011;57790;51.356;-2.906;2022-10-16T03:50:08;11.07;;;1.10;;
70369;SDS011;57790;51.356;-2.906;2022-10-16T03:53:09;10.70;;;1.10;;
70369;SDS011;57790;51.356;-2.906;2022-10-16T03:56:09;14.38;;;1.58;;
70369;SDS011;57790;51.356;-2.906;2022-10-16T03:59:09;11.57;;;0.87;;
70369;SDS011;57790;51.356;-2.906;2022-10-16T04:02:10;10.83;;;1.20;;
70369;SDS011;57790;51.356;-2.906;2022-10-16T04:05:10;8.57;;;1.00;;
70369;SDS011;57790;51.356;-2.906;2022-10-16T04:08:11;8.67;;;1.10;;
70369;SDS011;57790;51.356;-2.906;2022-10-16T04:11:11;9.87;;;0.70;;
70369;SDS011;57790;51.356;-2.906;2022-10-16T04:14:11;12.50;;;1.40;;
70369;SDS011;57790;51.356;-2.906;2022-10-16T04:17:12;14.97;;;1.23;;
70369;SDS011;57790;51.356;-2.906;2022-10-16T04:20:12;9.10;;;1.30;;
70369;SDS011;57790;51.356;-2.906;2022-10-16T04:23:13;9.47;;;1.20;;
70369;SDS011;57790;51.356;-2.906;2022-10-16T04:26:13;9.67;;;1.00;;
70369;SDS011;57790;51.356;-2.906;2022-10-16T04:29:13;8.17;;;0.90;;
70369;SDS011;57790;51.356;-2.906;2022-10-16T04:32:14;10.95;;;1.50;;
70369;SDS011;57790;51.356;-2.906;2022-10-16T04:35:14;7.43;;;0.80;;
70369;SDS011;57790;51.356;-2.906;2022-10-16T04:38:15;9.60;;;1.07;;
70369;SDS011;57790;51.356;-2.906;2022-10-16T04:41:15;9.90;;;0.93;;
70369;SDS011;57790;51.356;-2.906;2022-10-16T04:44:15;9.37;;;1.20;;
70369;SDS011;57790;51.356;-2.906;2022-10-16T04:47:16;14.02;;;0.95;;
70369;SDS011;57790;51.356;-2.906;2022-10-16T04:50:16;12.40;;;1.10;;
70369;SDS011;57790;51.356;-2.906;2022-10-16T04:53:17;9.20;;;0.93;;
70369;SDS011;57790;51.356;-2.906;2022-10-16T04:56:17;9.10;;;0.70;;
70369;SDS011;57790;51.356;-2.906;2022-10-16T04:59:24;11.00;;;0.88;;
70369;SDS011;57790;51.356;-2.906;2022-10-16T05:02:24;11.30;;;1.20;;
70369;SDS011;57790;51.356;-2.906;2022-10-16T05:05:25;8.93;;;1.00;;
70369;SDS011;57790;51.356;-2.906;2022-10-16T05:08:25;10.90;;;0.90;;
70369;SDS011;57790;51.356;-2.906;2022-10-16T05:11:26;9.23;;;1.00;;
70369;SDS011;57790;51.356;-2.906;2022-10-16T05:14:26;7.75;;;1.10;;
70369;SDS011;57790;51.356;-2.906;2022-10-16T05:17:27;10.43;;;1.20;;
70369;SDS011;57790;51.356;-2.906;2022-10-16T05:20:27;10.50;;;0.90;;
70369;SDS011;57790;51.356;-2.906;2022-10-16T05:23:28;6.85;;;1.00;;
70369;SDS011;57790;51.356;-2.906;2022-10-16T05:26:28;9.40;;;0.90;;
70369;SDS011;57790;51.356;-2.906;2022-10-16T05:29:28;7.80;;;0.80;;
70369;SDS011;57790;51.356;-2.906;2022-10-16T05:32:29;10.07;;;0.90;;
70369;SDS011;57790;51.356;-2.906;2022-10-16T05:35:29;7.97;;;0.83;;
70369;SDS011;57790;51.356;-2.906;2022-10-16T05:38:30;11.07;;;1.00;;
70369;SDS011;57790;51.356;-2.906;2022-10-16T05:41:30;10.63;;;1.40;;
70369;SDS011;57790;51.356;-2.906;2022-10-16T05:44:31;10.57;;;0.90;;
70369;SDS011;57790;51.356;-2.906;2022-10-16T05:47:32;11.90;;;1.00;;
70369;SDS011;57790;51.356;-2.906;2022-10-16T05:50:32;7.83;;;0.87;;
70369;SDS011;57790;51.356;-2.906;2022-10-16T05:53:34;11.27;;;1.20;;
70369;SDS011;57790;51.356;-2.906;2022-10-16T05:56:35;10.73;;;1.07;;
70369;SDS011;57790;51.356;-2.906;2022-10-16T05:59:36;10.45;;;1.25;;
70369;SDS011;57790;51.356;-2.906;2022-10-16T06:02:36;9.67;;;0.93;;
70369;SDS011;57790;51.356;-2.906;2022-10-16T06:05:37;6.70;;;0.98;;
70369;SDS011;57790;51.356;-2.906;2022-10-16T06:08:38;9.43;;;1.33;;
70369;SDS011;57790;51.356;-2.906;2022-10-16T06:11:39;6.03;;;0.80;;
70369;SDS011;57790;51.356;-2.906;2022-10-16T06:14:40;9.93;;;1.20;;
70369;SDS011;57790;51.356;-2.906;2022-10-16T06:17:40;9.50;;;1.03;;
70369;SDS011;57790;51.356;-2.906;2022-10-16T06:20:41;10.13;;;1.10;;
70369;SDS011;57790;51.356;-2.906;2022-10-16T06:23:41;10.87;;;1.00;;
70369;SDS011;57790;51.356;-2.906;2022-10-16T06:26:41;11.50;;;1.13;;
70369;SDS011;57790;51.356;-2.906;2022-10-16T06:29:42;7.80;;;0.90;;
70369;SDS011;57790;51.356;-2.906;2022-10-16T06:32:43;12.50;;;1.43;;
70369;SDS011;57790;51.356;-2.906;2022-10-16T06:35:43;10.33;;;1.13;;
70369;SDS011;57790;51.356;-2.906;2022-10-16T06:38:44;15.77;;;1.80;;
70369;SDS011;57790;51.356;-2.906;2022-10-16T06:41:44;8.37;;;1.07;;
70369;SDS011;57790;51.356;-2.906;2022-10-16T06:44:45;9.37;;;1.00;;
70369;SDS011;57790;51.356;-2.906;2022-10-16T06:47:45;11.90;;;1.70;;
70369;SDS011;57790;51.356;-2.906;2022-10-16T06:50:59;11.02;;;1.25;;
70369;SDS011;57790;51.356;-2.906;2022-10-16T06:54:04;9.15;;;1.17;;
70369;SDS011;57790;51.356;-2.906;2022-10-16T06:57:04;9.57;;;1.10;;
70369;SDS011;57790;51.356;-2.906;2022-10-16T07:00:05;7.00;;;0.80;;
70369;SDS011;57790;51.356;-2.906;2022-10-16T07:03:06;11.63;;;1.35;;
70369;SDS011;57790;51.356;-2.906;2022-10-16T07:06:07;11.43;;;1.20;;
70369;SDS011;57790;51.356;-2.906;2022-10-16T07:09:09;8.25;;;1.08;;
70369;SDS011;57790;51.356;-2.906;2022-10-16T07:12:10;9.30;;;1.00;;
70369;SDS011;57790;51.356;-2.906;2022-10-16T07:15:10;9.82;;;1.33;;
70369;SDS011;57790;51.356;-2.906;2022-10-16T07:18:12;12.83;;;1.23;;
70369;SDS011;57790;51.356;-2.906;2022-10-16T07:21:17;8.88;;;1.27;;
70369;SDS011;57790;51.356;-2.906;2022-10-16T07:24:20;11.60;;;1.52;;
70369;SDS011;57790;51.356;-2.906;2022-10-16T07:27:20;10.70;;;1.70;;
70369;SDS011;57790;51.356;-2.906;2022-10-16T07:30:23;13.30;;;2.03;;
70369;SDS011;57790;51.356;-2.906;2022-10-16T07:33:24;9.03;;;1.17;;
70369;SDS011;57790;51.356;-2.906;2022-10-16T07:36:24;13.40;;;1.50;;
70369;SDS011;57790;51.356;-2.906;2022-10-16T07:39:25;11.77;;;1.10;;
70369;SDS011;57790;51.356;-2.906;2022-10-16T07:42:26;13.23;;;1.60;;
70369;SDS011;57790;51.356;-2.906;2022-10-16T07:45:27;10.40;;;1.30;;
70369;SDS011;57790;51.356;-2.906;2022-10-16T07:48:28;12.70;;;1.60;;
70369;SDS011;57790;51.356;-2.906;2022-10-16T07:51:30;13.90;;;3.10;;
70369;SDS011;57790;51.356;-2.906;2022-10-16T07:54:31;13.97;;;3.00;;
70369;SDS011;57790;51.356;-2.906;2022-10-16T07:57:31;14.93;;;2.00;;
70369;SDS011;57790;51.356;-2.906;2022-10-16T08:00:31;11.10;;;1.58;;
70369;SDS011;57790;51.356;-2.906;2022-10-16T08:03:32;13.43;;;1.30;;
70369;SDS011;57790;51.356;-2.906;2022-10-16T08:06:37;14.95;;;1.83;;
70369;SDS011;57790;51.356;-2.906;2022-10-16T08:09:39;10.93;;;1.60;;
70369;SDS011;57790;51.356;-2.906;2022-10-16T08:12:40;11.40;;;2.20;;
70369;SDS011;57790;51.356;-2.906;2022-10-16T08:15:41;9.53;;;1.40;;
70369;SDS011;57790;51.356;-2.906;2022-10-16T08:18:42;10.48;;;1.40;;
70369;SDS011;57790;51.356;-2.906;2022-10-16T08:21:42;11.17;;;1.00;;
70369;SDS011;57790;51.356;-2.906;2022-10-16T08:24:43;12.37;;;1.00;;
70369;SDS011;57790;51.356;-2.906;2022-10-16T08:27:43;11.73;;;1.30;;
70369;SDS011;57790;51.356;-2.906;2022-10-16T08:30:44;9.88;;;1.15;;
70369;SDS011;57790;51.356;-2.906;2022-10-16T08:33:45;13.18;;;1.50;;
70369;SDS011;57790;51.356;-2.906;2022-10-16T08:36:47;11.77;;;1.43;;
70369;SDS011;57790;51.356;-2.906;2022-10-16T08:39:47;16.73;;;1.80;;
70369;SDS011;57790;51.356;-2.906;2022-10-16T08:49:10;8.47;;;1.20;;
70369;SDS011;57790;51.356;-2.906;2022-10-16T08:52:15;7.32;;;1.20;;
70369;SDS011;57790;51.356;-2.906;2022-10-16T08:55:24;7.93;;;1.10;;
70369;SDS011;57790;51.356;-2.906;2022-10-16T08:58:30;12.30;;;1.10;;
70369;SDS011;57790;51.356;-2.906;2022-10-16T09:01:38;13.88;;;1.70;;
70369;SDS011;57790;51.356;-2.906;2022-10-16T09:04:44;13.13;;;1.53;;
70369;SDS011;57790;51.356;-2.906;2022-10-16T09:11:01;13.52;;;1.50;;
70369;SDS011;57790;51.356;-2.906;2022-10-16T09:21:16;13.67;;;1.50;;
70369;SDS011;57790;51.356;-2.906;2022-10-16T09:24:21;13.07;;;1.55;;
70369;SDS011;57790;51.356;-2.906;2022-10-16T09:27:25;10.15;;;1.70;;
70369;SDS011;57790;51.356;-2.906;2022-10-16T09:30:27;9.67;;;1.60;;
70369;SDS011;57790;51.356;-2.906;2022-10-16T09:33:30;10.35;;;1.40;;
70369;SDS011;57790;51.356;-2.906;2022-10-16T09:36:38;13.95;;;1.70;;
70369;SDS011;57790;51.356;-2.906;2022-10-16T09:39:45;10.90;;;1.48;;
70369;SDS011;57790;51.356;-2.906;2022-10-16T09:42:47;11.85;;;2.00;;
70369;SDS011;57790;51.356;-2.906;2022-10-16T09:45:57;11.47;;;1.40;;
70369;SDS011;57790;51.356;-2.906;2022-10-16T09:49:18;8.98;;;1.35;;
70369;SDS011;57790;51.356;-2.906;2022-10-16T09:52:22;12.38;;;1.80;;
70369;SDS011;57790;51.356;-2.906;2022-10-16T09:55:23;9.47;;;1.53;;
70369;SDS011;57790;51.356;-2.906;2022-10-16T09:58:24;10.07;;;1.50;;
70369;SDS011;57790;51.356;-2.906;2022-10-16T10:02:09;12.65;;;1.40;;
70369;SDS011;57790;51.356;-2.906;2022-10-16T10:04:53;9.75;;;1.42;;
70369;SDS011;57790;51.356;-2.906;2022-10-16T10:08:03;7.93;;;1.55;;
70369;SDS011;57790;51.356;-2.906;2022-10-16T10:11:06;12.03;;;2.67;;
70369;SDS011;57790;51.356;-2.906;2022-10-16T10:14:28;9.48;;;1.85;;
70369;SDS011;57790;51.356;-2.906;2022-10-16T10:17:27;9.88;;;2.17;;
70369;SDS011;57790;51.356;-2.906;2022-10-16T10:20:35;10.17;;;1.70;;
70369;SDS011;57790;51.356;-2.906;2022-10-16T10:23:38;9.75;;;1.52;;
70369;SDS011;57790;51.356;-2.906;2022-10-16T10:26:39;12.60;;;1.73;;
70369;SDS011;57790;51.356;-2.906;2022-10-16T10:29:49;10.32;;;2.00;;
70369;SDS011;57790;51.356;-2.906;2022-10-16T10:39:29;12.47;;;2.10;;
70369;SDS011;57790;51.356;-2.906;2022-10-16T10:42:53;11.25;;;1.80;;
70369;SDS011;57790;51.356;-2.906;2022-10-16T10:46:04;8.07;;;1.70;;
70369;SDS011;57790;51.356;-2.906;2022-10-16T10:49:54;8.20;;;1.50;;
70369;SDS011;57790;51.356;-2.906;2022-10-16T10:55:54;11.03;;;1.63;;
70369;SDS011;57790;51.356;-2.906;2022-10-16T11:09:51;10.75;;;2.17;;
70369;SDS011;57790;51.356;-2.906;2022-10-16T11:12:36;9.57;;;2.03;;
70369;SDS011;57790;51.356;-2.906;2022-10-16T11:15:44;9.43;;;1.83;;
70369;SDS011;57790;51.356;-2.906;2022-10-16T11:22:27;7.65;;;1.60;;
70369;SDS011;57790;51.356;-2.906;2022-10-16T11:25:36;8.38;;;1.80;;
70369;SDS011;57790;51.356;-2.906;2022-10-16T11:28:42;12.77;;;3.97;;
70369;SDS011;57790;51.356;-2.906;2022-10-16T11:31:52;12.85;;;2.47;;
70369;SDS011;57790;51.356;-2.906;2022-10-16T11:35:00;9.80;;;1.60;;
70369;SDS011;57790;51.356;-2.906;2022-10-16T11:38:21;10.90;;;2.00;;
70369;SDS011;57790;51.356;-2.906;2022-10-16T11:41:37;9.85;;;1.80;;
70369;SDS011;57790;51.356;-2.906;2022-10-16T11:48:12;9.68;;;1.70;;
70369;SDS011;57790;51.356;-2.906;2022-10-16T11:51:50;10.77;;;2.17;;
70369;SDS011;57790;51.356;-2.906;2022-10-16T11:55:18;11.13;;;1.98;;
70369;SDS011;57790;51.356;-2.906;2022-10-16T11:58:31;8.00;;;1.65;;
70369;SDS011;57790;51.356;-2.906;2022-10-16T12:08:19;9.73;;;1.73;;
70369;SDS011;57790;51.356;-2.906;2022-10-16T12:11:22;9.15;;;1.77;;
70369;SDS011;57790;51.356;-2.906;2022-10-16T12:17:36;10.23;;;1.50;;
70369;SDS011;57790;51.356;-2.906;2022-10-16T12:20:38;9.55;;;1.67;;
70369;SDS011;57790;51.356;-2.906;2022-10-16T12:23:52;14.32;;;2.28;;
70369;SDS011;57790;51.356;-2.906;2022-10-16T12:26:54;10.40;;;1.40;;
70369;SDS011;57790;51.356;-2.906;2022-10-16T12:29:56;9.55;;;1.63;;
70369;SDS011;57790;51.356;-2.906;2022-10-16T12:33:02;9.70;;;1.83;;
70369;SDS011;57790;51.356;-2.906;2022-10-16T12:36:08;11.75;;;1.77;;
70369;SDS011;57790;51.356;-2.906;2022-10-16T12:39:22;9.80;;;1.63;;
70369;SDS011;57790;51.356;-2.906;2022-10-16T12:45:31;12.60;;;2.17;;
70369;SDS011;57790;51.356;-2.906;2022-10-16T12:48:33;12.15;;;1.60;;
70369;SDS011;57790;51.356;-2.906;2022-10-16T12:51:36;8.20;;;1.63;;
70369;SDS011;57790;51.356;-2.906;2022-10-16T12:54:37;10.67;;;1.67;;
70369;SDS011;57790;51.356;-2.906;2022-10-16T12:57:48;9.80;;;1.80;;
70369;SDS011;57790;51.356;-2.906;2022-10-16T13:28:34;9.93;;;1.57;;
70369;SDS011;57790;51.356;-2.906;2022-10-16T13:31:38;7.45;;;1.85;;
70369;SDS011;57790;51.356;-2.906;2022-10-16T13:34:45;7.40;;;1.00;;
70369;SDS011;57790;51.356;-2.906;2022-10-16T13:37:48;8.73;;;1.40;;
70369;SDS011;57790;51.356;-2.906;2022-10-16T13:40:50;7.43;;;1.25;;
70369;SDS011;57790;51.356;-2.906;2022-10-16T13:43:56;9.30;;;1.40;;
70369;SDS011;57790;51.356;-2.906;2022-10-16T13:47:00;9.10;;;1.30;;
70369;SDS011;57790;51.356;-2.906;2022-10-16T13:50:12;8.23;;;1.25;;
70369;SDS011;57790;51.356;-2.906;2022-10-16T13:53:14;11.15;;;1.33;;
70369;SDS011;57790;51.356;-2.906;2022-10-16T13:56:19;8.50;;;1.50;;
70369;SDS011;57790;51.356;-2.906;2022-10-16T13:59:25;10.73;;;1.52;;
70369;SDS011;57790;51.356;-2.906;2022-10-16T14:02:33;9.07;;;1.85;;
70369;SDS011;57790;51.356;-2.906;2022-10-16T14:05:42;7.38;;;1.38;;
70369;SDS011;57790;51.356;-2.906;2022-10-16T14:09:03;8.57;;;1.35;;
70369;SDS011;57790;51.356;-2.906;2022-10-16T14:12:10;7.27;;;1.50;;
70369;SDS011;57790;51.356;-2.906;2022-10-16T14:15:15;7.82;;;2.00;;
70369;SDS011;57790;51.356;-2.906;2022-10-16T14:18:20;8.10;;;1.45;;
70369;SDS011;57790;51.356;-2.906;2022-10-16T14:21:22;10.55;;;1.60;;
70369;SDS011;57790;51.356;-2.906;2022-10-16T14:24:25;7.38;;;1.15;;
70369;SDS011;57790;51.356;-2.906;2022-10-16T14:27:34;9.27;;;1.30;;
70369;SDS011;57790;51.356;-2.906;2022-10-16T14:30:37;7.32;;;1.25;;
70369;SDS011;57790;51.356;-2.906;2022-10-16T14:33:37;7.53;;;1.20;;
70369;SDS011;57790;51.356;-2.906;2022-10-16T14:36:40;9.47;;;1.40;;
70369;SDS011;57790;51.356;-2.906;2022-10-16T14:39:41;9.43;;;2.17;;
70369;SDS011;57790;51.356;-2.906;2022-10-16T14:42:42;7.82;;;1.50;;
70369;SDS011;57790;51.356;-2.906;2022-10-16T14:45:43;7.45;;;1.40;;
70369;SDS011;57790;51.356;-2.906;2022-10-16T14:48:53;11.13;;;1.33;;
70369;SDS011;57790;51.356;-2.906;2022-10-16T14:52:08;9.07;;;1.60;;
70369;SDS011;57790;51.356;-2.906;2022-10-16T14:55:10;7.45;;;1.60;;
70369;SDS011;57790;51.356;-2.906;2022-10-16T14:58:18;8.25;;;1.67;;
70369;SDS011;57790;51.356;-2.906;2022-10-16T15:01:21;10.48;;;1.60;;
70369;SDS011;57790;51.356;-2.906;2022-10-16T15:04:21;9.57;;;1.70;;
70369;SDS011;57790;51.356;-2.906;2022-10-16T15:07:21;7.77;;;1.60;;
70369;SDS011;57790;51.356;-2.906;2022-10-16T15:10:23;11.27;;;1.50;;
70369;SDS011;57790;51.356;-2.906;2022-10-16T15:13:25;13.68;;;2.08;;
70369;SDS011;57790;51.356;-2.906;2022-10-16T15:16:26;11.00;;;1.60;;
70369;SDS011;57790;51.356;-2.906;2022-10-16T15:19:26;10.90;;;1.73;;
70369;SDS011;57790;51.356;-2.906;2022-10-16T15:22:27;8.87;;;1.53;;
70369;SDS011;57790;51.356;-2.906;2022-10-16T15:28:33;12.55;;;1.88;;
70369;SDS011;57790;51.356;-2.906;2022-10-16T15:31:33;11.10;;;1.70;;
70369;SDS011;57790;51.356;-2.906;2022-10-16T15:34:34;13.50;;;1.50;;
70369;SDS011;57790;51.356;-2.906;2022-10-16T15:37:34;16.50;;;2.10;;
70369;SDS011;57790;51.356;-2.906;2022-10-16T15:40:35;10.23;;;1.77;;
70369;SDS011;57790;51.356;-2.906;2022-10-16T15:43:35;7.80;;;1.40;;
70369;SDS011;57790;51.356;-2.906;2022-10-16T15:46:36;11.70;;;2.07;;
70369;SDS011;57790;51.356;-2.906;2022-10-16T15:49:37;12.30;;;1.87;;
70369;SDS011;57790;51.356;-2.906;2022-10-16T15:52:37;13.70;;;1.73;;
70369;SDS011;57790;51.356;-2.906;2022-10-16T15:55:39;10.43;;;1.40;;
70369;SDS011;57790;51.356;-2.906;2022-10-16T15:58:39;17.23;;;1.40;;
70369;SDS011;57790;51.356;-2.906;2022-10-16T16:01:40;10.80;;;1.53;;
70369;SDS011;57790;51.356;-2.906;2022-10-16T16:04:40;7.80;;;1.60;;
70369;SDS011;57790;51.356;-2.906;2022-10-16T16:07:40;9.83;;;1.40;;
70369;SDS011;57790;51.356;-2.906;2022-10-16T16:10:41;10.00;;;1.53;;
70369;SDS011;57790;51.356;-2.906;2022-10-16T16:13:41;10.23;;;1.33;;
70369;SDS011;57790;51.356;-2.906;2022-10-16T16:16:42;13.80;;;1.60;;
70369;SDS011;57790;51.356;-2.906;2022-10-16T16:19:43;9.47;;;1.47;;
70369;SDS011;57790;51.356;-2.906;2022-10-16T16:22:43;10.93;;;1.60;;
70369;SDS011;57790;51.356;-2.906;2022-10-16T16:25:44;8.57;;;1.07;;
70369;SDS011;57790;51.356;-2.906;2022-10-16T16:28:44;11.53;;;1.40;;
70369;SDS011;57790;51.356;-2.906;2022-10-16T16:31:44;11.03;;;1.57;;
70369;SDS011;57790;51.356;-2.906;2022-10-16T16:34:47;11.25;;;1.48;;
70369;SDS011;57790;51.356;-2.906;2022-10-16T16:37:47;9.15;;;1.60;;
70369;SDS011;57790;51.356;-2.906;2022-10-16T16:40:47;10.17;;;1.60;;
70369;SDS011;57790;51.356;-2.906;2022-10-16T16:43:48;11.40;;;1.80;;
70369;SDS011;57790;51.356;-2.906;2022-10-16T16:46:51;11.48;;;1.92;;
70369;SDS011;57790;51.356;-2.906;2022-10-16T16:49:51;12.93;;;2.23;;
70369;SDS011;57790;51.356;-2.906;2022-10-16T16:52:52;10.37;;;1.30;;
70369;SDS011;57790;51.356;-2.906;2022-10-16T16:55:52;14.00;;;1.60;;
70369;SDS011;57790;51.356;-2.906;2022-10-16T16:58:53;9.67;;;1.50;;
70369;SDS011;57790;51.356;-2.906;2022-10-16T17:01:55;8.57;;;1.40;;
70369;SDS011;57790;51.356;-2.906;2022-10-16T17:04:56;10.80;;;2.00;;
70369;SDS011;57790;51.356;-2.906;2022-10-16T17:07:57;9.27;;;1.30;;
70369;SDS011;57790;51.356;-2.906;2022-10-16T17:10:58;10.47;;;1.20;;
70369;SDS011;57790;51.356;-2.906;2022-10-16T17:13:58;9.15;;;1.70;;
70369;SDS011;57790;51.356;-2.906;2022-10-16T17:16:59;10.00;;;2.17;;
70369;SDS011;57790;51.356;-2.906;2022-10-16T17:20:03;8.53;;;1.10;;
70369;SDS011;57790;51.356;-2.906;2022-10-16T17:23:03;8.37;;;1.20;;
70369;SDS011;57790;51.356;-2.906;2022-10-16T17:26:07;7.38;;;1.40;;
70369;SDS011;57790;51.356;-2.906;2022-10-16T17:29:10;8.20;;;1.10;;
70369;SDS011;57790;51.356;-2.906;2022-10-16T17:32:12;10.63;;;1.67;;
70369;SDS011;57790;51.356;-2.906;2022-10-16T17:35:12;5.70;;;1.00;;
70369;SDS011;57790;51.356;-2.906;2022-10-16T17:38:13;8.63;;;1.30;;
70369;SDS011;57790;51.356;-2.906;2022-10-16T17:41:15;9.30;;;1.13;;
70369;SDS011;57790;51.356;-2.906;2022-10-16T17:44:17;6.27;;;1.00;;
70369;SDS011;57790;51.356;-2.906;2022-10-16T17:47:21;7.57;;;1.10;;
70369;SDS011;57790;51.356;-2.906;2022-10-16T17:50:21;4.83;;;0.80;;
70369;SDS011;57790;51.356;-2.906;2022-10-16T17:53:22;7.27;;;1.20;;
70369;SDS011;57790;51.356;-2.906;2022-10-16T17:56:23;5.13;;;1.10;;
70369;SDS011;57790;51.356;-2.906;2022-10-16T17:59:24;3.20;;;0.90;;
70369;SDS011;57790;51.356;-2.906;2022-10-16T18:02:24;3.88;;;0.73;;
70369;SDS011;57790;51.356;-2.906;2022-10-16T18:05:25;3.43;;;0.70;;
70369;SDS011;57790;51.356;-2.906;2022-10-16T18:08:26;3.97;;;0.80;;
70369;SDS011;57790;51.356;-2.906;2022-10-16T18:11:27;3.15;;;0.70;;
70369;SDS011;57790;51.356;-2.906;2022-10-16T18:14:28;3.13;;;0.50;;
70369;SDS011;57790;51.356;-2.906;2022-10-16T18:17:33;2.55;;;0.60;;
70369;SDS011;57790;51.356;-2.906;2022-10-16T18:20:36;3.80;;;0.93;;
70369;SDS011;57790;51.356;-2.906;2022-10-16T18:23:37;3.57;;;0.80;;
70369;SDS011;57790;51.356;-2.906;2022-10-16T18:26:38;4.18;;;0.80;;
70369;SDS011;57790;51.356;-2.906;2022-10-16T18:29:38;4.33;;;0.87;;
70369;SDS011;57790;51.356;-2.906;2022-10-16T18:32:38;3.23;;;0.70;;
70369;SDS011;57790;51.356;-2.906;2022-10-16T18:35:39;2.73;;;0.60;;
70369;SDS011;57790;51.356;-2.906;2022-10-16T18:38:39;3.95;;;0.80;;
70369;SDS011;57790;51.356;-2.906;2022-10-16T18:41:41;4.43;;;0.90;;
70369;SDS011;57790;51.356;-2.906;2022-10-16T18:44:43;14.52;;;5.95;;
70369;SDS011;57790;51.356;-2.906;2022-10-16T18:47:44;27.27;;;11.17;;
70369;SDS011;57790;51.356;-2.906;2022-10-16T18:50:45;17.38;;;7.85;;
70369;SDS011;57790;51.356;-2.906;2022-10-16T18:53:46;17.90;;;6.83;;
70369;SDS011;57790;51.356;-2.906;2022-10-16T18:56:50;7.75;;;1.85;;
70369;SDS011;57790;51.356;-2.906;2022-10-16T18:59:51;5.63;;;1.27;;
70369;SDS011;57790;51.356;-2.906;2022-10-16T19:02:51;2.55;;;0.75;;
70369;SDS011;57790;51.356;-2.906;2022-10-16T19:05:51;3.90;;;1.20;;
70369;SDS011;57790;51.356;-2.906;2022-10-16T19:08:52;6.37;;;1.87;;
70369;SDS011;57790;51.356;-2.906;2022-10-16T19:11:53;5.82;;;1.00;;
70369;SDS011;57790;51.356;-2.906;2022-10-16T19:14:54;4.37;;;0.90;;
70369;SDS011;57790;51.356;-2.906;2022-10-16T19:17:54;6.43;;;1.30;;
70369;SDS011;57790;51.356;-2.906;2022-10-16T19:20:55;11.13;;;4.80;;
70369;SDS011;57790;51.356;-2.906;2022-10-16T19:23:56;5.88;;;1.10;;
70369;SDS011;57790;51.356;-2.906;2022-10-16T19:26:58;6.93;;;1.10;;
70369;SDS011;57790;51.356;-2.906;2022-10-16T19:29:58;6.53;;;1.10;;
70369;SDS011;57790;51.356;-2.906;2022-10-16T19:32:59;3.30;;;0.80;;
70369;SDS011;57790;51.356;-2.906;2022-10-16T19:36:33;6.13;;;1.20;;
70369;SDS011;57790;51.356;-2.906;2022-10-16T19:39:27;6.28;;;1.40;;
70369;SDS011;57790;51.356;-2.906;2022-10-16T19:42:27;6.73;;;1.77;;